Time;durP1;ratioP1;P1;durP2;ratioP2;P2;SDS_P1;SDS_P2;PMS_P1;PMS_P2;Temp;Humidity;BMP_temperature;BMP_pressure;BME280_temperature;BME280_humidity;BME280_pressure;Samples;Min_cycle;Max_cycle;Signal;HPM_P1;HPM_P2
2023/09/15 00:00:29;;;;;;;18.02;5.80;;;;;;;-144.30;49.05;84386.72;5069704;28;20192;-60
2023/09/15 00:02:56;;;;;;;14.18;5.40;;;;;;;-144.30;48.52;84342.97;5070609;28;20593;-60
2023/09/15 00:05:26;;;;;;;8.32;5.07;;;;;;;-144.30;48.62;84390.69;5069774;28;20654;-60
2023/09/15 00:07:53;;;;;;;19.95;4.63;;;;;;;-144.30;48.44;84390.69;5069821;28;20196;-60
2023/09/15 00:10:21;;;;;;;12.25;4.72;;;;;;;-144.30;48.52;84378.75;5069228;28;20314;-52
2023/09/15 00:12:48;;;;;;;14.23;5.43;;;;;;;-144.30;48.52;84396.66;5069700;28;20650;-59
2023/09/15 00:15:17;;;;;;;21.08;5.55;;;;;;;-144.30;48.90;84416.50;5069534;28;20200;-59
2023/09/15 00:17:45;;;;;;;11.20;4.95;;;;;;;-144.30;49.05;84430.44;5069307;28;20239;-59
2023/09/15 00:20:14;;;;;;;9.93;4.93;;;;;;;-144.30;49.12;84426.47;5069609;28;20659;-52
2023/09/15 00:22:42;;;;;;;23.60;6.47;;;;;;;-144.30;48.91;84348.94;5069292;28;20199;-51
2023/09/15 00:25:10;;;;;;;13.65;4.90;;;;;;;-144.30;49.20;84416.50;5069040;28;20200;-52
2023/09/15 00:27:37;;;;;;;21.23;4.75;;;;;;;-144.30;49.20;84396.66;5069617;28;20242;-58
2023/09/15 00:30:05;;;;;;;9.55;4.95;;;;;;;-144.30;49.05;84360.88;5069174;28;20216;-59
2023/09/15 00:32:33;;;;;;;12.45;5.13;;;;;;;-144.30;49.37;84406.59;5069668;28;20191;-59
2023/09/15 00:35:00;;;;;;;10.80;4.57;;;;;;;-144.30;49.43;84456.25;5069428;28;20196;-53
2023/09/15 00:37:27;;;;;;;14.00;4.90;;;;;;;-144.30;49.50;84394.66;5069042;28;20192;-52
2023/09/15 00:39:54;;;;;;;12.50;5.57;;;;;;;-144.30;49.64;84452.28;5068964;28;20192;-51
2023/09/15 00:42:21;;;;;;;9.75;4.93;;;;;;;-144.30;49.75;84458.25;5069048;28;20218;-52
2023/09/15 00:44:48;;;;;;;10.20;4.45;;;;;;;-144.30;49.78;84432.41;5068807;28;20200;-51
2023/09/15 00:47:16;;;;;;;11.15;4.75;;;;;;;-144.30;49.82;84462.22;5069277;28;20643;-59
2023/09/15 00:49:46;;;;;;;7.43;4.75;;;;;;;-144.30;49.45;84474.16;5069328;28;20315;-59
2023/09/15 00:52:15;;;;;;;6.22;4.03;;;;;;;-144.30;49.36;84430.44;5069203;28;20258;-59
2023/09/15 00:54:42;;;;;;;11.10;4.70;;;;;;;-144.30;49.34;84446.31;5069200;28;20229;-52
2023/09/15 00:57:09;;;;;;;8.55;4.90;;;;;;;-144.30;49.06;84448.31;5072530;28;20597;-52
2023/09/15 00:59:36;;;;;;;10.20;5.22;;;;;;;-144.30;48.76;84476.13;5072651;28;20200;-52
2023/09/15 01:02:04;;;;;;;8.98;4.53;;;;;;;-144.30;48.74;84472.16;5072750;28;20195;-53
2023/09/15 01:04:31;;;;;;;12.30;5.13;;;;;;;-144.30;48.23;84484.09;5073049;28;20664;-52
2023/09/15 01:07:03;;;;;;;12.38;5.25;;;;;;;-144.30;48.01;84486.06;5072792;28;20192;-60
2023/09/15 01:09:31;;;;;;;11.20;5.18;;;;;;;-144.30;48.10;84470.19;5072716;28;20726;-52
2023/09/15 01:11:58;;;;;;;10.80;4.40;;;;;;;-144.30;47.72;84500.00;5072516;28;20677;-52
2023/09/15 01:14:25;;;;;;;10.63;4.70;;;;;;;-144.30;47.50;84500.00;5072286;28;20192;-51
2023/09/15 01:17:02;;;;;;;14.18;5.05;;;;;;;-144.30;47.73;84513.91;5072306;28;20415;-59
2023/09/15 01:19:55;;;;;;;8.23;4.70;;;;;;;-144.30;47.57;84507.94;5072545;28;20286;-60
2023/09/15 01:23:10;;;;;;;13.25;4.70;;;;;;;-144.30;47.61;84529.81;5072180;28;20203;-52
2023/09/15 01:25:57;;;;;;;10.90;4.68;;;;;;;-144.30;48.03;84531.78;5010449;28;20198;-59
2023/09/15 01:28:50;;;;;;;10.05;4.63;;;;;;;-144.30;48.32;84529.81;5072227;28;20199;-59
2023/09/15 01:31:19;;;;;;;10.70;4.57;;;;;;;-144.30;48.50;84545.69;5072256;28;20223;-59
2023/09/15 01:33:46;;;;;;;15.02;4.30;;;;;;;-144.30;48.79;84545.69;5072630;28;20696;-52
2023/09/15 01:36:13;;;;;;;9.98;5.00;;;;;;;-144.30;49.05;84543.72;5072117;28;20200;-52
2023/09/15 01:38:40;;;;;;;9.20;4.70;;;;;;;-144.30;49.31;84553.66;5072027;28;20215;-52
2023/09/15 01:41:07;;;;;;;22.33;4.88;;;;;;;-144.30;48.90;84561.59;5071710;28;20192;-51
2023/09/15 01:43:34;;;;;;;8.57;4.50;;;;;;;-144.30;48.52;84571.53;5072243;28;20206;-49
2023/09/15 01:46:01;;;;;;;14.95;4.40;;;;;;;-144.30;48.47;84569.53;5072068;28;20204;-50
2023/09/15 01:48:31;;;;;;;13.70;4.65;;;;;;;-144.30;48.17;84587.44;5071775;28;20196;-59
2023/09/15 01:50:59;;;;;;;11.70;5.07;;;;;;;-144.30;47.95;84563.59;5072106;28;20238;-60
2023/09/15 01:53:27;;;;;;;9.48;4.10;;;;;;;-144.30;47.55;84613.28;5071691;28;20923;-50
2023/09/15 01:55:54;;;;;;;8.90;4.60;;;;;;;-144.30;47.67;84589.41;5071608;28;20286;-60
2023/09/15 01:58:21;;;;;;;12.77;4.40;;;;;;;-144.30;47.31;84571.53;5071483;28;20200;-52
2023/09/15 02:00:48;;;;;;;12.50;4.35;;;;;;;-144.30;47.52;84609.31;5071623;28;20231;-51
2023/09/15 02:03:16;;;;;;;17.77;5.95;;;;;;;-144.30;47.54;84601.34;5071564;28;20196;-51
2023/09/15 02:05:45;;;;;;;15.00;5.28;;;;;;;-144.30;47.65;84627.19;5071349;28;20254;-50
2023/09/15 02:08:11;;;;;;;14.35;5.25;;;;;;;-144.30;47.55;84603.34;5071182;28;20195;-59
2023/09/15 02:10:38;;;;;;;6.35;4.38;;;;;;;-144.30;47.69;84621.22;5071644;28;20220;-59
2023/09/15 02:13:05;;;;;;;12.43;4.47;;;;;;;-144.30;47.69;84601.34;5071725;28;20199;-59
2023/09/15 02:15:32;;;;;;;14.15;4.55;;;;;;;-144.30;47.45;84631.16;5071719;28;20200;-59
2023/09/15 02:18:00;;;;;;;9.90;4.68;;;;;;;-144.30;47.14;84613.28;5071443;28;20775;-59
2023/09/15 02:20:27;;;;;;;13.82;4.60;;;;;;;-144.30;46.92;84589.41;5071257;28;20207;-51
2023/09/15 02:22:57;;;;;;;12.18;4.47;;;;;;;-144.30;47.04;84597.38;5071119;28;20637;-51
2023/09/15 02:25:23;;;;;;;11.60;4.55;;;;;;;-144.30;46.97;84611.28;5071301;28;20199;-59
2023/09/15 02:27:50;;;;;;;18.58;4.95;;;;;;;-144.30;47.18;84585.44;5071281;28;20202;-60
2023/09/15 02:30:17;;;;;;;7.60;4.43;;;;;;;-144.30;47.35;84625.19;5070983;28;20220;-59
2023/09/15 02:32:44;;;;;;;13.13;4.88;;;;;;;-144.30;47.72;84613.28;5071262;28;20198;-59
2023/09/15 02:35:11;;;;;;;9.35;4.47;;;;;;;-144.30;48.38;84651.03;5070766;28;20575;-50
2023/09/15 02:37:38;;;;;;;10.85;5.05;;;;;;;-144.30;49.07;84637.13;5071649;28;20196;-59
2023/09/15 02:40:08;;;;;;;23.10;5.70;;;;;;;-144.30;49.34;84666.94;5070947;28;20194;-59
2023/09/15 02:42:36;;;;;;;16.98;4.90;;;;;;;-144.30;49.52;84637.13;5071351;28;20672;-59
2023/09/15 02:45:03;;;;;;;14.13;5.00;;;;;;;-144.30;48.82;84653.03;5070875;28;20196;-60
2023/09/15 02:47:30;;;;;;;12.93;5.20;;;;;;;-144.30;48.69;84664.94;5070616;28;20200;-60
2023/09/15 02:49:57;;;;;;;8.95;5.00;;;;;;;-144.30;48.75;84645.06;5070539;28;20199;-59
2023/09/15 02:52:24;;;;;;;18.90;5.05;;;;;;;-144.30;48.92;84657.00;5070557;28;20192;-60
2023/09/15 02:54:51;;;;;;;18.95;5.13;;;;;;;-144.30;48.81;84670.91;5070921;28;20691;-59
2023/09/15 02:57:19;;;;;;;13.45;6.20;;;;;;;-144.30;48.71;84668.94;5070626;28;20257;-60
2023/09/15 02:59:46;;;;;;;14.50;5.78;;;;;;;-144.30;49.01;84690.78;5070755;28;20223;-58
2023/09/15 03:02:15;;;;;;;13.13;5.20;;;;;;;-144.30;49.25;84651.03;5070172;28;20567;-59
2023/09/15 03:04:46;;;;;;;20.00;6.43;;;;;;;-144.30;50.08;84633.16;5070440;28;20278;-60
2023/09/15 03:07:13;;;;;;;10.40;5.35;;;;;;;-144.30;50.20;84696.75;5070330;28;20591;-60
2023/09/15 03:09:40;;;;;;;14.02;5.18;;;;;;;-144.30;50.53;84684.81;5070744;28;20710;-60
2023/09/15 03:12:07;;;;;;;10.35;5.32;;;;;;;-144.30;50.31;84657.00;5070108;28;20219;-59
2023/09/15 03:14:35;;;;;;;16.08;5.15;;;;;;;-144.30;50.89;84676.88;5070220;28;20273;-52
2023/09/15 03:17:03;;;;;;;17.67;5.30;;;;;;;-144.30;51.87;84678.84;5069916;28;20575;-51
2023/09/15 03:19:30;;;;;;;14.70;5.95;;;;;;;-144.30;51.85;84682.84;5069635;28;20648;-51
2023/09/15 03:21:57;;;;;;;14.20;6.07;;;;;;;-144.30;52.21;84718.63;5070189;28;20218;-51
2023/09/15 03:24:24;;;;;;;15.45;5.32;;;;;;;-144.30;52.10;84742.47;5070095;28;20215;-52
2023/09/15 03:26:51;;;;;;;15.52;6.05;;;;;;;-144.30;53.01;84696.75;5070303;28;20202;-52
2023/09/15 03:29:18;;;;;;;22.35;6.30;;;;;;;-144.30;53.63;84732.53;5069798;28;20195;-51
2023/09/15 03:31:46;;;;;;;21.70;5.85;;;;;;;-144.30;54.11;84728.56;5069793;28;20587;-50
2023/09/15 03:34:13;;;;;;;17.15;5.68;;;;;;;-144.30;54.71;84740.47;5070042;28;20196;-51
2023/09/15 03:36:40;;;;;;;15.15;5.63;;;;;;;-144.30;55.13;84742.47;5070378;28;20192;-60
2023/09/15 03:39:07;;;;;;;18.25;5.70;;;;;;;-144.30;55.19;84776.25;5069884;28;20196;-58
2023/09/15 03:41:34;;;;;;;15.60;5.63;;;;;;;-144.30;55.01;84768.31;5069773;28;20196;-60
2023/09/15 03:44:01;;;;;;;25.40;6.63;;;;;;;-144.30;55.21;84764.31;5069734;28;20202;-59
2023/09/15 03:46:28;;;;;;;19.27;6.32;;;;;;;-144.30;54.91;84782.22;5069928;28;20723;-51
2023/09/15 03:48:56;;;;;;;20.23;6.20;;;;;;;-144.30;55.44;84730.53;5069670;28;20287;-51
2023/09/15 03:51:23;;;;;;;13.77;5.50;;;;;;;-144.30;55.98;84764.31;5069498;28;20224;-50
2023/09/15 03:53:50;;;;;;;17.77;5.88;;;;;;;-144.30;56.59;84742.47;5069679;28;20234;-52
2023/09/15 03:56:17;;;;;;;11.50;5.60;;;;;;;-144.30;56.68;84800.09;5069338;28;20287;-50
2023/09/15 03:58:45;;;;;;;13.48;5.88;;;;;;;-144.30;57.20;84802.09;5069546;28;20196;-50
2023/09/15 04:01:13;;;;;;;12.30;5.80;;;;;;;-144.30;58.06;84814.00;5064760;28;20575;-59
2023/09/15 04:03:39;;;;;;;18.38;6.30;;;;;;;-144.30;58.08;84810.03;5069747;28;20278;-51
2023/09/15 04:06:08;;;;;;;16.60;6.38;;;;;;;-144.30;57.99;84760.34;5064981;28;20706;-51
2023/09/15 04:08:35;;;;;;;18.92;6.72;;;;;;;-144.30;57.67;84806.06;5069223;28;20211;-51
2023/09/15 04:11:02;;;;;;;15.15;6.40;;;;;;;-144.30;58.14;84746.44;5068973;28;20349;-51
2023/09/15 04:13:29;;;;;;;19.38;6.30;;;;;;;-144.30;58.37;84804.06;5068875;28;20299;-59
2023/09/15 04:15:59;;;;;;;27.17;7.22;;;;;;;-144.30;58.40;84784.19;5073868;28;20200;-51
2023/09/15 04:18:26;;;;;;;17.48;6.97;;;;;;;-144.30;58.19;84776.25;5069005;28;20224;-52
2023/09/15 04:20:54;;;;;;;24.02;7.40;;;;;;;-144.30;57.89;84772.28;5068826;28;20196;-57
2023/09/15 04:23:23;;;;;;;30.17;6.88;;;;;;;-144.30;57.77;84724.56;5069333;28;20252;-52
2023/09/15 04:25:50;;;;;;;15.55;5.93;;;;;;;-144.30;57.72;84768.31;5069098;28;20196;-50
2023/09/15 04:28:16;;;;;;;14.68;6.68;;;;;;;-144.30;57.62;84730.53;5069784;28;20660;-58
2023/09/15 04:30:43;;;;;;;19.13;6.93;;;;;;;-144.30;57.53;84744.44;5071354;28;20305;-51
2023/09/15 04:33:10;;;;;;;19.40;7.07;;;;;;;-144.30;57.89;84756.38;5073050;28;20226;-50
2023/09/15 04:35:37;;;;;;;15.18;6.32;;;;;;;-144.30;57.91;84718.63;5072858;28;20668;-50
2023/09/15 04:38:04;;;;;;;15.35;6.70;;;;;;;-144.30;57.43;84744.44;5073160;28;20222;-59
2023/09/15 04:40:32;;;;;;;20.52;6.18;;;;;;;-144.30;56.71;84700.72;5073025;28;20590;-59
2023/09/15 04:43:00;;;;;;;14.82;6.30;;;;;;;-144.30;55.83;84662.97;5073133;28;20206;-59
2023/09/15 04:45:27;;;;;;;21.65;6.78;;;;;;;-144.30;55.27;84678.84;5073002;28;20192;-59
2023/09/15 04:47:54;;;;;;;20.40;6.72;;;;;;;-144.30;55.13;84662.97;5073016;28;20646;-60
2023/09/15 04:50:21;;;;;;;26.10;7.28;;;;;;;-144.30;55.05;84637.13;5071778;28;20196;-59
2023/09/15 04:52:48;;;;;;;17.80;6.22;;;;;;;-144.30;54.83;84625.19;5071759;28;20306;-60
2023/09/15 04:55:14;;;;;;;20.88;7.43;;;;;;;-144.30;55.05;84561.59;5071310;28;20202;-59
2023/09/15 04:57:43;;;;;;;12.88;6.63;;;;;;;-144.30;55.70;84641.09;5071691;28;20196;-60
2023/09/15 05:00:13;;;;;;;21.67;7.93;;;;;;;-144.30;56.08;84605.31;5071573;28;20203;-60
2023/09/15 05:02:42;;;;;;;16.70;7.38;;;;;;;-144.30;56.10;84577.50;5072217;28;20256;-60
2023/09/15 05:05:09;;;;;;;23.25;9.15;;;;;;;-144.30;55.71;84551.66;5072045;28;20273;-52
2023/09/15 05:07:36;;;;;;;32.80;8.50;;;;;;;-144.30;55.42;84523.84;5071575;28;20683;-50
2023/09/15 05:10:03;;;;;;;24.20;8.80;;;;;;;-144.30;53.58;84390.69;5072057;28;20573;-51
2023/09/15 05:12:30;;;;;;;24.38;7.85;;;;;;;-144.30;51.33;84303.25;5071672;28;20227;-51
2023/09/15 05:14:58;;;;;;;31.15;8.75;;;;;;;-144.30;48.47;84132.34;5073017;28;20649;-52
2023/09/15 05:17:25;;;;;;;16.63;7.30;;;;;;;-144.30;46.80;83995.22;5072299;28;20232;-51
2023/09/15 05:19:53;;;;;;;16.70;7.63;;;;;;;-144.30;44.62;83858.09;5071676;28;20664;-49
2023/09/15 05:22:20;;;;;;;28.30;8.05;;;;;;;-144.30;42.37;83687.22;5071985;28;20202;-52
2023/09/15 05:24:47;;;;;;;22.30;8.90;;;;;;;-144.30;40.87;83556.09;5072306;28;20196;-52
2023/09/15 05:27:14;;;;;;;20.05;7.85;;;;;;;-144.30;40.33;83558.06;5072228;28;20287;-61
2023/09/15 05:29:40;;;;;;;25.35;7.95;;;;;;;-144.30;39.89;83554.09;5072006;28;20597;-61
2023/09/15 05:32:09;;;;;;;26.33;8.35;;;;;;;-144.30;39.72;83532.25;5072407;28;20707;-53
2023/09/15 05:34:36;;;;;;;19.48;8.18;;;;;;;-144.30;39.74;83500.47;5072175;28;20283;-53
2023/09/15 05:37:03;;;;;;;25.40;8.70;;;;;;;-144.30;39.76;83462.72;5072185;28;20286;-52
2023/09/15 05:39:31;;;;;;;28.95;10.18;;;;;;;-144.30;38.97;83329.59;5072123;28;20204;-53
2023/09/15 05:41:58;;;;;;;15.93;9.00;;;;;;;-144.30;37.64;83315.69;5066763;28;20192;-57
2023/09/15 05:44:25;;;;;;;17.10;7.78;;;;;;;-144.30;37.13;83210.38;5061603;28;20254;-55
2023/09/15 05:46:53;;;;;;;17.85;8.25;;;;;;;-144.30;37.11;83208.41;5051947;28;20197;-57
2023/09/15 05:49:21;;;;;;;29.88;9.57;;;;;;;-144.30;36.67;83166.69;5051766;28;20240;-57
2023/09/15 05:51:48;;;;;;;25.50;8.85;;;;;;;-144.30;36.02;83059.41;5052101;28;20238;-56
2023/09/15 05:54:15;;;;;;;26.95;8.52;;;;;;;-144.30;35.37;82948.16;5051534;28;20197;-57
2023/09/15 05:56:42;;;;;;;20.25;8.20;;;;;;;-144.30;34.37;82793.22;5051838;28;20619;-57
2023/09/15 05:59:09;;;;;;;27.70;8.52;;;;;;;-144.30;33.40;82604.50;5051420;28;20196;-57
2023/09/15 06:01:36;;;;;;;17.23;7.50;;;;;;;-144.30;32.90;82564.78;5051605;28;20193;-56
2023/09/15 06:04:04;;;;;;;20.75;8.52;;;;;;;-144.30;32.62;82523.06;5051663;28;20207;-57
2023/09/15 06:06:34;;;;;;;22.95;8.27;;;;;;;-144.30;31.76;82328.41;5051611;28;20215;-57
2023/09/15 06:09:00;;;;;;;16.35;8.02;;;;;;;-144.30;31.05;82161.59;5051435;28;20200;-57
2023/09/15 06:11:28;;;;;;;18.48;7.38;;;;;;;-144.30;30.43;82076.19;5064600;28;20222;-56
2023/09/15 06:13:55;;;;;;;11.95;7.25;;;;;;;-144.30;30.20;82038.44;5071921;28;20195;-62
2023/09/15 06:16:22;;;;;;;22.05;8.27;;;;;;;-144.30;30.22;82082.13;5071423;28;20200;-62
2023/09/15 06:18:49;;;;;;;17.60;8.27;;;;;;;-144.30;30.43;82076.19;5071409;28;20227;-56
2023/09/15 06:21:15;;;;;;;23.90;7.85;;;;;;;-144.30;30.24;82088.09;5070662;28;20664;-55
2023/09/15 06:23:44;;;;;;;14.77;7.05;;;;;;;-144.30;30.03;82008.66;5071104;28;20235;-59
2023/09/15 06:26:11;;;;;;;14.50;8.32;;;;;;;-144.30;30.16;81947.09;5070577;28;20210;-55
2023/09/15 06:28:38;;;;;;;16.67;8.02;;;;;;;-144.30;29.65;81816.03;5070580;28;20206;-59
2023/09/15 06:31:04;;;;;;;19.42;7.05;;;;;;;-144.30;29.46;81776.31;5070523;28;20210;-56
2023/09/15 06:33:31;;;;;;;13.40;7.05;;;;;;;-144.30;29.21;81766.38;5070693;28;20583;-55
2023/09/15 06:35:58;;;;;;;11.98;7.00;;;;;;;-144.30;28.58;81549.94;5070663;28;20586;-53
2023/09/15 06:38:25;;;;;;;8.85;6.63;;;;;;;-144.30;28.56;82064.28;5070413;28;20625;-54
2023/09/15 06:40:53;;;;;;;16.20;6.45;;;;;;;-144.30;28.47;81412.91;5070911;28;20191;-54
2023/09/15 06:43:21;;;;;;;19.08;7.15;;;;;;;-144.30;28.20;81351.34;5068968;28;20245;-54
2023/09/15 06:45:48;;;;;;;21.38;6.88;;;;;;;-144.30;27.98;81204.44;5068106;28;20195;-53
2023/09/15 06:48:15;;;;;;;23.05;6.60;;;;;;;-144.30;27.45;81015.81;5069631;28;20207;-55
2023/09/15 06:50:42;;;;;;;14.60;7.15;;;;;;;-144.30;26.82;80823.22;5070304;28;20199;-53
2023/09/15 06:53:09;;;;;;;9.90;6.65;;;;;;;-144.30;27.28;81206.41;5068729;28;20226;-53
2023/09/15 06:55:35;;;;;;;19.40;7.05;;;;;;;-144.30;27.59;81256.06;5070139;28;20199;-53
2023/09/15 06:58:04;;;;;;;12.98;8.43;;;;;;;-144.30;27.69;81246.13;5069920;28;20195;-54
2023/09/15 07:00:31;;;;;;;12.50;6.45;;;;;;;-144.30;28.22;81500.28;5069756;28;20211;-53
2023/09/15 07:02:58;;;;;;;32.08;7.70;;;;;;;-144.30;28.77;81583.69;5069729;28;20191;-54
2023/09/15 07:05:25;;;;;;;11.55;6.32;;;;;;;-144.30;28.53;81522.13;5069815;28;20525;-54
2023/09/15 07:07:52;;;;;;;14.80;6.47;;;;;;;-144.30;28.57;81561.84;5069879;28;20205;-53
2023/09/15 07:10:19;;;;;;;13.60;6.55;;;;;;;-144.30;28.34;81494.31;5070024;28;20206;-54
2023/09/15 07:12:45;;;;;;;11.02;6.25;;;;;;;-144.30;27.81;81452.63;5069803;28;20732;-53
2023/09/15 07:15:14;;;;;;;15.32;6.57;;;;;;;-144.30;27.88;81395.03;5069606;28;20195;-53
2023/09/15 07:17:42;;;;;;;13.75;7.15;;;;;;;-144.30;27.42;81095.22;5069552;28;20246;-56
2023/09/15 07:20:09;;;;;;;13.60;8.18;;;;;;;-144.30;26.86;80811.31;5069392;28;20290;-54
2023/09/15 07:22:36;;;;;;;16.27;7.40;;;;;;;-144.30;26.50;80596.91;5069804;28;20192;-54
2023/09/15 07:25:04;;;;;;;20.02;8.50;;;;;;;-144.30;26.40;80561.19;5069744;28;20647;-52
2023/09/15 07:27:30;;;;;;;15.48;8.57;;;;;;;-144.30;26.59;80803.38;5069152;28;20212;-54
2023/09/15 07:29:57;;;;;;;19.08;9.35;;;;;;;-144.30;26.94;80934.41;5069860;28;20589;-54
2023/09/15 07:32:26;;;;;;;16.40;8.77;;;;;;;-144.30;27.09;81055.50;5069329;28;20223;-54
2023/09/15 07:34:52;;;;;;;17.60;8.48;;;;;;;-144.30;27.17;80936.41;5069020;28;20199;-53
2023/09/15 07:37:19;;;;;;;24.63;9.80;;;;;;;-144.30;26.87;80886.75;5067163;28;20217;-54
2023/09/15 07:39:46;;;;;;;70.30;12.98;;;;;;;-144.30;26.54;80624.72;5067331;28;20210;-54
2023/09/15 07:42:13;;;;;;;28.35;9.65;;;;;;;-144.30;25.60;80235.63;5067675;28;20366;-54
2023/09/15 07:44:41;;;;;;;16.88;9.45;;;;;;;-144.30;25.18;79963.69;5068537;28;20202;-55
2023/09/15 07:47:12;;;;;;;29.92;9.38;;;;;;;-144.30;24.96;80064.94;5068499;28;20198;-55
2023/09/15 07:49:40;;;;;;;16.17;9.20;;;;;;;-144.30;24.95;79949.81;5069108;28;20195;-55
2023/09/15 07:52:07;;;;;;;18.17;9.02;;;;;;;-144.30;24.62;79820.78;5067562;28;20246;-54
2023/09/15 07:54:35;;;;;;;15.23;8.70;;;;;;;-144.30;24.55;79646.16;5069126;28;20201;-55
2023/09/15 07:57:03;;;;;;;16.20;8.65;;;;;;;-144.30;24.07;79673.94;5068581;28;20215;-55
2023/09/15 07:59:30;;;;;;;12.25;7.63;;;;;;;-144.30;24.22;79699.72;5069294;28;20199;-55
2023/09/15 08:01:57;;;;;;;11.70;8.25;;;;;;;-144.30;24.37;80043.09;5069024;28;20203;-55
2023/09/15 08:04:24;;;;;;;9.50;7.78;;;;;;;-144.30;24.42;79910.09;5068348;28;20592;-54
2023/09/15 08:06:53;;;;;;;19.17;8.50;;;;;;;-144.30;24.23;79850.56;5068681;28;20205;-55
2023/09/15 08:09:20;;;;;;;13.82;7.85;;;;;;;-144.30;24.32;80021.25;5068627;28;20203;-55
2023/09/15 08:11:47;;;;;;;13.77;7.35;;;;;;;-144.30;24.70;80221.72;5069019;28;20195;-54
2023/09/15 08:14:14;;;;;;;18.77;7.32;;;;;;;-144.30;25.71;80654.47;5068710;28;20683;-54
2023/09/15 08:16:40;;;;;;;18.50;7.38;;;;;;;-144.30;25.85;80916.53;5068584;28;20203;-54
2023/09/15 08:19:08;;;;;;;12.40;7.45;;;;;;;-144.30;26.55;81057.50;5067673;28;20235;-55
2023/09/15 08:21:35;;;;;;;13.55;7.10;;;;;;;-144.30;27.40;81494.31;5068786;28;20570;-53
2023/09/15 08:24:04;;;;;;;13.88;6.90;;;;;;;-144.30;28.97;81982.84;5068217;28;20195;-54
2023/09/15 08:26:31;;;;;;;14.90;7.38;;;;;;;-144.30;29.63;82246.97;5068323;28;20676;-54
2023/09/15 08:28:58;;;;;;;16.83;7.72;;;;;;;-144.30;30.16;82298.63;5068469;28;20712;-54
2023/09/15 08:31:25;;;;;;;14.07;7.53;;;;;;;-144.30;31.03;82370.13;5068236;28;20585;-54
2023/09/15 08:33:53;;;;;;;15.60;8.20;;;;;;;-144.30;31.08;82479.38;5067986;28;20273;-55
2023/09/15 08:36:20;;;;;;;14.50;8.35;;;;;;;-144.30;31.46;82568.75;5068394;28;20615;-56
2023/09/15 08:38:47;;;;;;;12.73;8.73;;;;;;;-144.30;31.90;82572.72;5065238;28;20196;-54
2023/09/15 08:41:22;;;;;;;14.98;8.32;;;;;;;-144.30;32.36;82709.78;5067706;28;20195;-54
2023/09/15 08:43:49;;;;;;;15.55;8.93;;;;;;;-144.30;32.18;82668.06;5065508;28;20191;-55
2023/09/15 08:46:17;;;;;;;12.50;8.32;;;;;;;-144.30;32.32;82678.00;5067895;28;20200;-55
2023/09/15 08:48:49;;;;;;;13.65;8.98;;;;;;;-144.30;32.01;82642.25;5068695;28;20599;-54
2023/09/15 08:51:18;;;;;;;10.15;9.20;;;;;;;-144.30;32.34;82689.91;5068059;28;20192;-55
2023/09/15 08:53:45;;;;;;;13.57;9.18;;;;;;;-144.30;32.15;82699.84;5068163;28;20234;-54
2023/09/15 08:56:15;;;;;;;19.15;7.78;;;;;;;-144.30;32.34;82749.50;5068540;28;20202;-54
2023/09/15 08:58:42;;;;;;;18.48;13.30;;;;;;;-144.30;32.49;82729.66;5067898;28;20200;-54
2023/09/15 09:01:10;;;;;;;14.05;9.95;;;;;;;-144.30;32.75;82751.50;5067853;28;20203;-54
2023/09/15 09:03:38;;;;;;;31.60;25.63;;;;;;;-144.30;32.75;82749.50;5067434;28;20188;-55
2023/09/15 09:06:09;;;;;;;22.65;11.48;;;;;;;-144.30;33.13;82757.47;5068232;28;20192;-55
2023/09/15 09:08:41;;;;;;;16.15;8.38;;;;;;;-144.30;32.75;82797.19;5068249;28;20690;-54
2023/09/15 09:11:08;;;;;;;14.93;8.70;;;;;;;-144.30;32.82;82876.66;5068107;28;20192;-54
2023/09/15 09:13:36;;;;;;;14.82;8.18;;;;;;;-144.30;32.75;82789.25;5068093;28;20249;-54
2023/09/15 09:16:05;;;;;;;19.73;8.38;;;;;;;-144.30;32.86;82797.19;5068804;28;20290;-54
2023/09/15 09:18:33;;;;;;;17.83;7.80;;;;;;;-144.30;32.46;82749.50;5071657;28;20293;-55
2023/09/15 09:21:03;;;;;;;27.08;19.92;;;;;;;-144.30;32.25;82687.94;5071752;28;20601;-55
2023/09/15 09:23:30;;;;;;;14.88;9.65;;;;;;;-144.30;32.59;82741.56;5071616;28;20669;-54
2023/09/15 09:25:59;;;;;;;20.20;8.82;;;;;;;-144.30;32.18;82697.88;5071547;28;20586;-55
2023/09/15 09:28:26;;;;;;;18.48;9.63;;;;;;;-144.30;32.49;82741.56;5071439;28;20211;-54
2023/09/15 09:30:55;;;;;;;18.88;11.80;;;;;;;-144.30;32.74;82701.84;5071497;28;20211;-54
2023/09/15 09:33:22;;;;;;;14.73;10.40;;;;;;;-144.30;32.56;82757.47;5071178;28;20227;-55
2023/09/15 09:35:49;;;;;;;10.82;8.48;;;;;;;-144.30;32.40;82809.09;5071440;28;20302;-54
2023/09/15 09:38:16;;;;;;;15.25;9.25;;;;;;;-144.30;32.49;82791.22;5071130;28;20731;-54
2023/09/15 09:40:45;;;;;;;16.65;10.45;;;;;;;-144.30;32.56;82769.38;5071433;28;20195;-55
2023/09/15 09:43:15;;;;;;;14.20;8.23;;;;;;;-144.30;32.36;82769.38;5071260;28;20246;-54
2023/09/15 09:45:43;;;;;;;13.55;7.03;;;;;;;-144.30;32.73;82823.00;5071788;28;20196;-54
2023/09/15 09:48:11;;;;;;;18.52;7.85;;;;;;;-144.30;32.90;82860.75;5071255;28;20192;-54
2023/09/15 09:50:38;;;;;;;11.25;8.20;;;;;;;-144.30;32.75;82819.03;5071222;28;20196;-54
2023/09/15 09:53:09;;;;;;;14.93;8.55;;;;;;;-144.30;32.75;82830.97;5071297;28;20551;-53
2023/09/15 09:55:36;;;;;;;14.80;7.35;;;;;;;-144.30;32.89;82797.19;5071300;28;20639;-54
2023/09/15 09:58:07;;;;;;;14.68;7.53;;;;;;;-144.30;32.80;82789.25;5071502;28;20262;-54
2023/09/15 10:00:35;;;;;;;17.58;7.75;;;;;;;-144.30;32.74;82805.13;5071048;28;20195;-54
2023/09/15 10:03:02;;;;;;;15.30;7.55;;;;;;;-144.30;32.76;82813.06;5070837;28;20290;-55
2023/09/15 10:05:33;;;;;;;15.63;7.97;;;;;;;-144.30;32.83;82858.78;5070857;28;20676;-55
2023/09/15 10:08:00;;;;;;;11.52;7.75;;;;;;;-144.30;33.05;82823.00;5071272;28;20580;-54
2023/09/15 10:10:28;;;;;;;14.18;7.85;;;;;;;-144.30;33.39;82836.91;5071079;28;20206;-55
2023/09/15 10:12:56;;;;;;;15.48;7.43;;;;;;;-144.30;33.38;82940.22;5070939;28;20223;-55
2023/09/15 10:15:23;;;;;;;12.43;7.57;;;;;;;-144.30;33.44;82946.16;5070624;28;20287;-54
2023/09/15 10:17:51;;;;;;;10.65;7.38;;;;;;;-144.30;33.91;82952.13;5070692;28;20261;-53
2023/09/15 10:20:21;;;;;;;8.77;7.88;;;;;;;-144.30;33.43;82856.78;5070916;28;20369;-55
2023/09/15 10:22:49;;;;;;;15.82;7.85;;;;;;;-144.30;33.39;82904.47;5070763;28;20192;-55
2023/09/15 10:25:18;;;;;;;14.05;7.80;;;;;;;-144.30;33.38;82864.72;5070658;28;20695;-55
2023/09/15 10:27:46;;;;;;;16.23;8.25;;;;;;;-144.30;33.55;82914.38;5064679;28;20738;-54
2023/09/15 10:30:14;;;;;;;9.35;8.02;;;;;;;-144.30;33.87;82922.34;5068691;28;20207;-55
2023/09/15 10:32:43;;;;;;;15.55;8.23;;;;;;;-144.30;33.85;82902.47;5068754;28;20307;-53
2023/09/15 10:35:11;;;;;;;9.10;7.70;;;;;;;-144.30;34.04;82956.09;5069481;28;20307;-54
2023/09/15 10:37:42;;;;;;;8.27;7.32;;;;;;;-144.30;34.04;83009.75;5074316;28;20215;-54
2023/09/15 10:40:12;;;;;;;11.23;7.57;;;;;;;-144.30;34.06;82948.16;5069334;28;20249;-54
2023/09/15 10:42:48;;;;;;;11.27;7.72;;;;;;;-144.30;33.96;82960.06;5068784;28;20237;-54
2023/09/15 10:45:15;;;;;;;11.52;8.35;;;;;;;-144.30;33.72;82932.28;5067453;28;20196;-54
2023/09/15 10:47:42;;;;;;;10.68;7.35;;;;;;;-144.30;33.50;82872.66;5068558;28;20235;-54
2023/09/15 10:50:10;;;;;;;15.05;7.95;;;;;;;-144.30;33.57;82640.25;5067120;28;20708;-54
2023/09/15 10:52:38;;;;;;;12.75;7.95;;;;;;;-144.30;33.53;82926.31;5069318;28;20199;-54
2023/09/15 10:55:06;;;;;;;8.10;7.18;;;;;;;-144.30;33.55;82910.41;5069596;28;20196;-54
2023/09/15 10:57:37;;;;;;;10.32;8.00;;;;;;;-144.30;33.40;82888.56;5069323;28;20195;-53
2023/09/15 11:00:07;;;;;;;14.73;7.68;;;;;;;-144.30;33.71;82902.47;5069258;28;20471;-54
2023/09/15 11:02:36;;;;;;;8.40;6.65;;;;;;;-144.30;33.68;82892.53;5069395;28;20192;-55
2023/09/15 11:05:05;;;;;;;14.85;7.05;;;;;;;-144.30;33.49;82888.56;5069948;28;20192;-54
2023/09/15 11:07:34;;;;;;;12.15;7.65;;;;;;;-144.30;33.53;82896.50;5070007;28;20207;-53
2023/09/15 11:10:02;;;;;;;13.85;7.80;;;;;;;-144.30;33.45;82936.25;5069217;28;20560;-54
2023/09/15 11:12:29;;;;;;;9.45;6.88;;;;;;;-144.30;33.77;82900.47;5069003;28;20752;-54